Shreveport, LA (71119)

8:12 PM CDT on August 29, 2014 (GMT -0500)
Airport | Change Station
CLOSE
Current Station
Personal Weather Station
Location: Shreveport, LA
Elevation: 276 ft
Nearby Weather Stations

Elev 276 ft 32.46 °N, 93.84 °W | Updated 8 minutes ago

Light Thunderstorms and Rain
Light Thunderstorm Rain
76.3 °F
Feels Like 77 °F
N
3.7
Wind Variable Wind from North

Today
High -- | Low -- °F
--% Chance of Precip.
Yesterday
High -- | Low -- °F
Precip. -- in
6:48 AM 7:43 PM
Waxing Crescent, 18% visible
Pressure 29.90 in
Visibility 7.0 miles
Clouds Scattered Clouds 2500 ft
Mostly Cloudy 4300 ft
Overcast 11000 ft
Heat Index 77 °F
Dew Point 74 °F
Humidity 91%
Rainfall 0.29 in
Snow Depth Not available.
UV 0 out of 12
Pollen 9.20 out of 12
Ozone Good
PM2.5 Good
Flu Activity Not available.
METAR KSHV 300056Z COR 32004KT 7SM -TSRA SCT025 BKN043CB OVC110 26/23 A2991 RMK AO2 PK WND 18033/0022 TSB17RAB23 SLP124 FRQ LTGICCG NW-NE-SE TS NW-NE-SE MOV N P0038 T02560228

More Conditions Fewer Conditions

Pressure 29.90 in
Visibility 7.0 miles
Clouds Scattered Clouds 2500 ft
Mostly Cloudy 4300 ft
Overcast 11000 ft
Heat Index 77 °F
Dew Point 74 °F
Humidity 91%
Rainfall 0.29 in
Snow Depth Not available.
UV 0 out of 12
Pollen 9.20 out of 12
Ozone Good
PM2.5 Good
Flu Activity Not available.
METAR KSHV 300056Z COR 32004KT 7SM -TSRA SCT025 BKN043CB OVC110 26/23 A2991 RMK AO2 PK WND 18033/0022 TSB17RAB23 SLP124 FRQ LTGICCG NW-NE-SE TS NW-NE-SE MOV N P0038 T02560228

More Conditions Fewer Conditions

Nowcast | as of 6:22 PM CDT on August 29, 2014

Scattered showers and a few isolated thunderstorms will continue to develop across portions of area. This activity is moving to the north northwest around 20 mph. Rainfall amounts will range from a trace to a tenth of an inch.

×

10-Day Weather Forecast

Almanac

Astronomy

Aug. 29, 2014 Rise Set
Actual Time 6:48 AM CDT 7:43 PM CDT
Civil Twilight 6:23 AM CDT 8:08 PM CDT
Nautical Twilight 5:53 AM CDT 8:38 PM CDT
Astronomical Twilight 5:22 AM CDT 9:09 PM CDT
Moon 10:23 AM CDT (8/29) 9:58 PM CDT (8/29)
Length of Visible Light 13h 45m
Length of Day
12h 55m
Tomorrow will be 1m 53s shorter.
Waxing Crescent, 18% of the Moon is Illuminated
Today
Waxing Crescent
Sep 2
First Quarter
Sep 8
Full
Sep 15
Last Quarter
Sep 24
New

Today's Extremes

State Highs State Lows

Community

WunderPhotos

Upload Photos

1,748,395 photos uploaded!

Nearby

Air Quality

  Air Quality AQ Index Pollutant
Yesterday Good
PM2.5
Yesterday Good
OZONE
Current Good
PM2.5
Current Good
OZONE
Friday Good
OZONE
Friday Good
PM2.5
Saturday Good
OZONE
Saturday Good
PM2.5
Sunday Good
OZONE
Sunday Good
PM2.5

Snow Depth

Station Depth Elevation
No new snow has been reported.

Earthquake Activity

City Distance Mag. Time & Date
No recent earthquake activity has been reported nearby.
Minimum magnitude displayed is 2.5.

Coastal Water Temperatures

Place Temperature
No Stations Reporting

Nearby Weather Stations